createdAt,value
2018-03-11T00:02:18.678Z,82.30
2018-03-11T00:04:46.093Z,81.00
2018-03-11T00:07:13.852Z,82.10
2018-03-11T00:09:41.337Z,83.20
2018-03-11T00:12:08.795Z,83.20
2018-03-11T00:14:36.262Z,83.00
2018-03-11T00:17:03.992Z,83.40
2018-03-11T00:19:31.457Z,83.00
2018-03-11T00:21:58.932Z,82.90
2018-03-11T00:24:26.372Z,84.10
2018-03-11T00:26:53.837Z,83.40
2018-03-11T00:29:21.296Z,83.80
2018-03-11T00:31:49.530Z,82.50
2018-03-11T00:34:17.310Z,82.50
2018-03-11T00:36:44.774Z,82.30
2018-03-11T00:39:12.240Z,82.40
2018-03-11T00:41:39.758Z,82.60
2018-03-11T00:44:07.977Z,82.80
2018-03-11T00:46:35.443Z,82.80
2018-03-11T00:49:03.183Z,83.50
2018-03-11T00:51:30.651Z,83.70
2018-03-11T00:53:58.101Z,83.70
2018-03-11T00:56:25.562Z,83.20
2018-03-11T00:58:53.014Z,83.50
2018-03-11T01:01:20.777Z,83.50
2018-03-11T01:03:48.246Z,83.00
2018-03-11T01:06:15.690Z,83.10
2018-03-11T01:08:43.153Z,83.50
2018-03-11T01:11:10.606Z,83.40
2018-03-11T01:13:38.370Z,83.80
2018-03-11T01:16:05.840Z,83.20
2018-03-11T01:18:33.292Z,83.70
2018-03-11T01:21:01.050Z,83.70
2018-03-11T01:23:28.502Z,83.70
2018-03-11T01:25:55.966Z,82.00
2018-03-11T01:28:23.441Z,82.10
2018-03-11T01:30:50.890Z,82.80
2018-03-11T01:33:18.645Z,83.50
2018-03-11T01:35:46.090Z,83.30
2018-03-11T01:38:13.556Z,83.20
2018-03-11T01:40:41.009Z,83.10
2018-03-11T01:43:08.465Z,83.20
2018-03-11T01:45:35.959Z,83.50
2018-03-11T01:48:03.418Z,83.00
2018-03-11T01:50:30.883Z,83.20
2018-03-11T01:53:09.069Z,83.00
2018-03-11T01:55:36.534Z,82.60
2018-03-11T01:58:03.998Z,82.10
2018-03-11T02:00:31.461Z,83.00
2018-03-11T02:02:58.924Z,82.80
2018-03-11T02:05:26.383Z,81.70
2018-03-11T02:07:53.837Z,80.80
2018-03-11T02:10:21.289Z,81.20
2018-03-11T02:12:48.739Z,82.20
2018-03-11T02:15:16.201Z,82.50
2018-03-11T02:17:43.674Z,83.00
2018-03-11T02:20:11.131Z,83.10
2018-03-11T02:22:38.606Z,81.80
2018-03-11T02:25:06.839Z,82.60
2018-03-11T02:27:34.306Z,82.60
2018-03-11T02:30:02.036Z,81.80
2018-03-11T02:32:29.800Z,81.70
2018-03-11T02:34:57.265Z,81.30
2018-03-11T02:37:24.729Z,81.90
2018-03-11T02:39:52.186Z,81.50
2018-03-11T02:42:19.936Z,81.80
2018-03-11T02:44:47.390Z,80.80
2018-03-11T02:47:14.866Z,80.80
2018-03-11T02:49:42.336Z,80.70
2018-03-11T02:52:09.797Z,80.50
2018-03-11T02:54:37.479Z,80.70
2018-03-11T02:57:04.926Z,80.40
2018-03-11T02:59:32.382Z,80.90
2018-03-11T03:01:59.834Z,79.90
2018-03-11T03:04:27.297Z,79.80
2018-03-11T03:06:54.756Z,80.20
2018-03-11T03:09:22.208Z,80.20
2018-03-11T03:11:49.666Z,81.00
2018-03-11T03:14:17.385Z,80.00
2018-03-11T03:16:44.851Z,80.50
2018-03-11T03:19:12.311Z,80.30
2018-03-11T03:21:39.766Z,80.20
2018-03-11T03:24:07.524Z,79.60
2018-03-11T03:26:34.987Z,79.40
2018-03-11T03:29:02.442Z,79.70
2018-03-11T03:31:29.907Z,79.70
2018-03-11T03:33:57.370Z,79.00
2018-03-11T03:36:24.833Z,79.00
2018-03-11T03:38:52.294Z,78.50
2018-03-11T03:41:19.746Z,79.60
2018-03-11T03:43:47.487Z,78.90
2018-03-11T03:46:14.941Z,78.60
2018-03-11T03:48:42.412Z,77.80
2018-03-11T03:51:09.862Z,78.00
2018-03-11T03:53:37.323Z,78.40
2018-03-11T03:56:04.778Z,78.50
2018-03-11T03:58:32.541Z,77.90
2018-03-11T04:01:00.306Z,78.50
2018-03-11T04:03:28.065Z,77.70
2018-03-11T04:05:55.530Z,77.70
2018-03-11T04:08:23.295Z,77.70
2018-03-11T04:10:50.776Z,78.00
2018-03-11T04:13:18.239Z,77.70
2018-03-11T04:15:45.734Z,77.30
2018-03-11T04:18:13.174Z,77.50
2018-03-11T04:20:40.626Z,77.40
2018-03-11T04:23:08.090Z,77.90
2018-03-11T04:25:35.566Z,77.30
2018-03-11T04:28:03.789Z,77.70
2018-03-11T04:30:31.247Z,77.60
2018-03-11T04:32:58.707Z,77.60
2018-03-11T04:35:26.201Z,77.30
2018-03-11T04:37:54.719Z,76.80
2018-03-11T04:40:22.167Z,76.70
2018-03-11T04:42:49.621Z,77.00
2018-03-11T04:45:17.082Z,76.40
2018-03-11T04:47:44.542Z,76.70
2018-03-11T04:50:12.010Z,76.70
2018-03-11T04:52:39.462Z,76.70
2018-03-11T04:55:06.918Z,76.10
2018-03-11T04:57:34.380Z,76.20
2018-03-11T05:00:01.836Z,76.00
2018-03-11T05:02:29.300Z,76.60
2018-03-11T05:04:56.738Z,76.20
2018-03-11T05:07:24.204Z,75.90
2018-03-11T05:09:51.976Z,75.90
2018-03-11T05:12:19.439Z,76.20
2018-03-11T05:14:46.905Z,76.30
2018-03-11T05:17:14.375Z,76.20
2018-03-11T05:19:41.832Z,76.00
2018-03-11T05:22:09.298Z,75.90
2018-03-11T05:24:36.760Z,76.10
2018-03-11T05:27:04.210Z,77.40
2018-03-11T05:29:31.675Z,75.40
2018-03-11T05:31:59.126Z,75.80
2018-03-11T05:34:26.583Z,75.10
2018-03-11T05:36:54.057Z,76.40
2018-03-11T05:39:21.514Z,75.30
2018-03-11T05:41:48.972Z,75.10
2018-03-11T05:44:16.466Z,75.10
2018-03-11T05:46:43.937Z,75.40
2018-03-11T05:49:11.385Z,75.30
2018-03-11T05:51:38.856Z,75.10
2018-03-11T05:54:06.325Z,74.80
2018-03-11T05:56:33.783Z,75.80
2018-03-11T05:59:02.172Z,76.50
2018-03-11T06:01:29.628Z,75.70
2018-03-11T06:03:57.099Z,75.80
2018-03-11T06:06:24.585Z,76.00
2018-03-11T06:08:52.810Z,75.20
2018-03-11T06:11:20.274Z,75.10
2018-03-11T06:13:48.006Z,75.40
2018-03-11T06:16:15.566Z,75.50
2018-03-11T06:18:43.032Z,75.20
2018-03-11T06:21:10.794Z,74.80
2018-03-11T06:23:38.249Z,74.80
2018-03-11T06:26:05.719Z,74.60
2018-03-11T06:28:33.185Z,73.90
2018-03-11T06:31:01.430Z,73.50
2018-03-11T06:33:28.892Z,73.50
2018-03-11T06:35:56.570Z,73.30
2018-03-11T06:38:24.026Z,72.80
2018-03-11T06:40:51.492Z,72.50
2018-03-11T06:43:18.950Z,73.00
2018-03-11T06:45:47.384Z,71.60
2018-03-11T06:48:15.609Z,71.50
2018-03-11T06:50:43.071Z,71.30
2018-03-11T06:53:10.810Z,71.70
2018-03-11T06:55:38.274Z,70.80
2018-03-11T06:58:05.727Z,70.90
2018-03-11T07:00:33.198Z,70.20
2018-03-11T07:03:00.643Z,69.60
2018-03-11T07:05:28.109Z,69.80
2018-03-11T07:07:55.569Z,70.00
2018-03-11T07:10:23.018Z,68.70
2018-03-11T07:12:50.473Z,69.50
2018-03-11T07:15:18.228Z,68.40
2018-03-11T07:17:45.693Z,69.20
2018-03-11T07:20:13.147Z,68.40
2018-03-11T07:22:40.598Z,67.30
2018-03-11T07:25:08.052Z,68.00
2018-03-11T07:27:35.512Z,68.10
2018-03-11T07:30:02.979Z,67.50
2018-03-11T07:32:30.439Z,66.80
2018-03-11T07:34:57.886Z,66.90
2018-03-11T07:37:25.358Z,67.80
2018-03-11T07:39:52.824Z,67.10
2018-03-11T07:42:20.559Z,67.70
2018-03-11T07:44:48.034Z,66.20
2018-03-11T07:47:15.495Z,65.50
2018-03-11T07:49:42.954Z,64.80
2018-03-11T07:52:11.230Z,65.60
2018-03-11T07:54:38.914Z,65.60
2018-03-11T07:57:06.381Z,66.90
2018-03-11T07:59:33.846Z,65.30
2018-03-11T08:02:01.343Z,65.50
2018-03-11T08:04:28.803Z,63.90
2018-03-11T08:06:56.268Z,63.40
2018-03-11T08:09:23.733Z,63.90
2018-03-11T08:11:51.199Z,63.90
2018-03-11T08:14:18.668Z,63.30
2018-03-11T08:16:46.119Z,63.50
2018-03-11T08:19:13.598Z,62.80
2018-03-11T08:21:41.054Z,62.00
2018-03-11T08:24:08.518Z,62.00
2018-03-11T08:26:35.982Z,62.20
2018-03-11T08:29:04.197Z,61.30
2018-03-11T08:31:31.671Z,61.30
2018-03-11T08:33:59.125Z,62.10
2018-03-11T08:36:26.593Z,62.30
2018-03-11T08:38:54.047Z,61.20
2018-03-11T08:41:21.525Z,61.20
2018-03-11T08:43:48.990Z,61.50
2018-03-11T08:46:16.450Z,61.00
2018-03-11T08:48:43.918Z,61.40
2018-03-11T08:51:12.139Z,61.40
2018-03-11T08:53:39.612Z,61.20
2018-03-11T08:56:07.072Z,60.50
2018-03-11T08:58:35.323Z,61.00
2018-03-11T09:01:02.792Z,60.80
2018-03-11T09:03:30.325Z,61.20
2018-03-11T09:05:57.789Z,63.00
2018-03-11T09:08:25.250Z,61.90
2018-03-11T09:10:53.019Z,61.50
2018-03-11T09:13:20.483Z,62.20
2018-03-11T09:15:47.961Z,61.50
2018-03-11T09:18:15.690Z,61.50
2018-03-11T09:20:43.376Z,60.20
2018-03-11T09:23:10.838Z,60.20
2018-03-11T09:25:38.295Z,61.40
2018-03-11T09:28:05.756Z,59.70
2018-03-11T09:30:36.373Z,60.80
2018-03-11T09:33:03.833Z,59.80
2018-03-11T09:35:31.308Z,60.20
2018-03-11T09:37:58.767Z,59.80
2018-03-11T09:40:26.234Z,59.50
2018-03-11T09:42:53.695Z,59.10
2018-03-11T09:45:21.159Z,59.10
2018-03-11T09:47:48.863Z,59.40
2018-03-11T09:50:16.334Z,60.00
2018-03-11T09:52:43.806Z,58.80
2018-03-11T09:55:11.545Z,58.80
2018-03-11T09:57:39.006Z,59.30
2018-03-11T10:00:06.478Z,59.00
2018-03-11T10:02:34.704Z,58.30
2018-03-11T10:05:02.940Z,58.20
2018-03-11T10:07:30.402Z,58.20
2018-03-11T10:09:58.232Z,58.20
2018-03-11T10:12:25.697Z,57.60
2018-03-11T10:14:53.163Z,58.40
2018-03-11T10:17:20.632Z,56.80
2018-03-11T10:19:48.096Z,57.40
2018-03-11T10:22:15.563Z,57.20
2018-03-11T10:24:43.036Z,57.20
2018-03-11T10:27:10.495Z,55.80
2018-03-11T10:29:38.744Z,55.20
2018-03-11T10:32:06.201Z,55.20
2018-03-11T10:34:33.674Z,54.90
2018-03-11T10:37:01.386Z,54.50
2018-03-11T10:39:29.149Z,54.40
2018-03-11T10:41:56.631Z,55.80
2018-03-11T10:44:24.098Z,55.40
2018-03-11T10:46:51.567Z,56.20
2018-03-11T10:49:19.026Z,55.80
2018-03-11T10:51:46.742Z,55.10
2018-03-11T10:54:14.227Z,55.80
2018-03-11T10:56:41.681Z,55.40
2018-03-11T10:59:09.426Z,55.80
2018-03-11T11:01:42.580Z,55.30
2018-03-11T11:04:14.491Z,55.70
2018-03-11T11:06:42.242Z,55.60
2018-03-11T11:09:09.725Z,56.30
2018-03-11T11:11:37.461Z,56.20
2018-03-11T11:14:04.918Z,55.00
2018-03-11T11:16:32.378Z,55.20
2018-03-11T11:18:59.858Z,56.00
2018-03-11T11:21:27.313Z,55.70
2018-03-11T11:23:54.783Z,55.60
2018-03-11T11:26:22.513Z,55.00
2018-03-11T11:28:49.975Z,54.00
2018-03-11T11:31:17.479Z,53.50
2018-03-11T11:33:44.914Z,53.60
2018-03-11T11:36:12.381Z,53.00
2018-03-11T11:38:40.107Z,52.90
2018-03-11T11:41:07.574Z,53.00
2018-03-11T11:43:35.046Z,52.70
2018-03-11T11:46:02.531Z,53.40
2018-03-11T11:48:29.975Z,51.50
2018-03-11T11:50:57.442Z,52.50
2018-03-11T11:53:24.907Z,52.40
2018-03-11T11:55:53.148Z,51.80
2018-03-11T11:58:20.609Z,51.80
2018-03-11T12:00:48.342Z,51.80
2018-03-11T12:03:15.811Z,51.90
2018-03-11T12:05:43.278Z,51.90
2018-03-11T12:08:10.740Z,52.40
2018-03-11T12:10:38.203Z,52.70
2018-03-11T12:13:05.939Z,52.10
2018-03-11T12:15:35.547Z,51.30
2018-03-11T12:18:03.019Z,51.30
2018-03-11T12:20:30.766Z,50.70
2018-03-11T12:22:58.233Z,50.90
2018-03-11T12:25:25.991Z,50.80
2018-03-11T12:27:54.293Z,50.60
2018-03-11T12:30:21.754Z,50.60
2018-03-11T12:32:49.219Z,50.10
2018-03-11T12:35:16.902Z,50.20
2018-03-11T12:37:45.405Z,50.70
2018-03-11T12:40:12.864Z,50.00
2018-03-11T12:42:40.321Z,50.20
2018-03-11T12:45:07.819Z,50.40
2018-03-11T12:47:35.277Z,50.50
2018-03-11T12:50:02.806Z,49.80
2018-03-11T12:52:30.578Z,49.40
2018-03-11T12:54:58.046Z,49.60
2018-03-11T12:57:25.503Z,49.90
2018-03-11T12:59:53.011Z,48.80
2018-03-11T13:02:21.245Z,49.30
2018-03-11T13:04:48.702Z,49.20
2018-03-11T13:07:16.394Z,49.10
2018-03-11T13:09:43.863Z,49.50
2018-03-11T13:12:12.092Z,50.40
2018-03-11T13:14:39.563Z,50.30
2018-03-11T13:17:07.031Z,49.40
2018-03-11T13:19:34.494Z,49.30
2018-03-11T13:22:01.946Z,49.50
2018-03-11T13:24:29.405Z,49.80
2018-03-11T13:26:56.878Z,50.30
2018-03-11T13:29:25.102Z,50.60
2018-03-11T13:31:52.578Z,50.60
2018-03-11T13:34:26.923Z,50.90
2018-03-11T13:36:54.382Z,51.10
2018-03-11T13:42:27.500Z,51.30
2018-03-11T13:45:06.751Z,51.70
2018-03-11T13:47:34.267Z,51.60
2018-03-11T13:50:02.573Z,52.50
2018-03-11T13:52:41.853Z,52.30
2018-03-11T13:55:09.366Z,52.30
2018-03-11T14:00:47.576Z,52.70
2018-03-11T14:03:15.109Z,52.50
2018-03-11T14:05:43.384Z,53.20
2018-03-11T14:08:11.661Z,53.40
2018-03-11T14:10:40.002Z,53.60
2018-03-11T14:13:07.516Z,53.50
2018-03-11T14:15:35.035Z,53.50
2018-03-11T14:18:02.548Z,52.80
2018-03-11T14:20:30.061Z,52.50
2018-03-11T14:22:58.342Z,52.30
2018-03-11T14:25:26.646Z,52.40
2018-03-11T14:27:54.983Z,52.80
2018-03-11T14:30:23.278Z,52.60
2018-03-11T14:32:50.816Z,52.50
2018-03-11T14:35:19.104Z,53.00
2018-03-11T14:37:46.644Z,52.50
2018-03-11T14:40:14.173Z,52.70
2018-03-11T14:42:41.705Z,52.20
2018-03-11T14:45:09.247Z,52.60
2018-03-11T14:47:36.761Z,52.40
2018-03-11T14:50:04.353Z,52.40
2018-03-11T14:52:31.886Z,52.70
2018-03-11T14:54:59.392Z,53.00
2018-03-11T14:57:26.906Z,53.50
2018-03-11T14:59:55.199Z,54.20
2018-03-11T15:02:23.470Z,54.30
2018-03-11T15:04:51.749Z,54.50
2018-03-11T15:07:20.053Z,54.40
2018-03-11T15:09:47.575Z,54.30
2018-03-11T15:12:15.862Z,54.50
2018-03-11T15:14:43.379Z,54.40
2018-03-11T15:17:10.933Z,54.30
2018-03-11T15:19:38.443Z,54.20
2018-03-11T15:22:05.962Z,54.10
2018-03-11T15:24:33.460Z,54.30
2018-03-11T15:27:00.963Z,54.10
2018-03-11T15:29:28.499Z,54.30
2018-03-11T15:31:56.007Z,53.70
2018-03-11T15:34:24.279Z,53.40
2018-03-11T15:36:52.555Z,54.10
2018-03-11T15:39:20.824Z,54.40
2018-03-11T15:41:49.112Z,54.30
2018-03-11T15:44:16.642Z,54.20
2018-03-11T15:46:44.148Z,54.20
2018-03-11T15:49:11.674Z,54.90
2018-03-11T15:51:39.984Z,54.30
2018-03-11T15:54:07.505Z,54.30
2018-03-11T15:56:35.790Z,54.70
2018-03-11T15:59:04.076Z,54.60
2018-03-11T16:01:31.630Z,54.60
2018-03-11T16:04:00.290Z,54.50
2018-03-11T16:06:28.620Z,54.80
2018-03-11T16:08:56.131Z,54.70
2018-03-11T16:11:24.407Z,55.70
2018-03-11T16:13:51.948Z,55.10
2018-03-11T16:16:19.469Z,54.90
2018-03-11T16:18:47.004Z,55.00
2018-03-11T16:21:14.532Z,55.10
2018-03-11T16:23:42.789Z,55.10
2018-03-11T16:26:10.284Z,55.00
2018-03-11T16:28:37.800Z,54.60
2018-03-11T16:31:05.316Z,54.70
2018-03-11T16:33:33.660Z,55.50
2018-03-11T16:36:01.977Z,55.10
2018-03-11T16:38:29.784Z,55.10
2018-03-11T16:40:58.083Z,56.30
2018-03-11T16:43:25.607Z,56.30
2018-03-11T16:45:53.098Z,57.00
2018-03-11T16:48:21.371Z,56.60
2018-03-11T16:50:48.883Z,56.60
2018-03-11T16:53:16.418Z,56.90
2018-03-11T16:55:43.939Z,57.70
2018-03-11T16:58:12.284Z,62.40
2018-03-11T17:00:39.805Z,62.40
2018-03-11T17:03:07.330Z,63.50
2018-03-11T17:05:34.860Z,65.10
2018-03-11T17:08:02.379Z,65.60
2018-03-11T17:10:29.892Z,65.90
2018-03-11T17:12:58.157Z,66.90
2018-03-11T17:15:25.661Z,67.60
2018-03-11T17:17:53.179Z,66.80
2018-03-11T17:20:21.461Z,66.30
2018-03-11T17:22:49.737Z,66.80
2018-03-11T17:25:18.067Z,68.00
2018-03-11T17:27:45.594Z,68.00
2018-03-11T17:30:13.101Z,68.30
2018-03-11T17:32:40.627Z,68.40
2018-03-11T17:35:08.145Z,68.80
2018-03-11T17:37:36.422Z,69.30
2018-03-11T17:40:03.940Z,69.20
2018-03-11T17:42:31.487Z,69.20
2018-03-11T17:44:59.027Z,69.40
2018-03-11T17:47:26.536Z,69.00
2018-03-11T17:49:54.818Z,69.70
2018-03-11T17:52:23.112Z,69.90
2018-03-11T17:54:50.633Z,69.80
2018-03-11T17:57:18.146Z,70.00
2018-03-11T17:59:45.667Z,70.60
2018-03-11T18:02:13.943Z,70.50
2018-03-11T18:04:41.462Z,70.50
2018-03-11T18:07:08.985Z,70.20
2018-03-11T18:09:36.515Z,69.70
2018-03-11T18:12:04.042Z,70.10
2018-03-11T18:14:31.573Z,70.00
2018-03-11T18:16:59.097Z,69.80
2018-03-11T18:19:26.607Z,70.50
2018-03-11T18:21:54.908Z,70.30
2018-03-11T18:24:23.214Z,69.30
2018-03-11T18:26:50.727Z,69.20
2018-03-11T18:29:18.241Z,69.20
2018-03-11T18:31:46.520Z,69.80
2018-03-11T18:34:14.045Z,69.80
2018-03-11T18:36:42.138Z,69.80
2018-03-11T18:39:09.658Z,69.50
2018-03-11T18:41:37.945Z,69.60
2018-03-11T18:44:05.450Z,69.60
2018-03-11T18:46:32.988Z,69.60
2018-03-11T18:49:00.534Z,69.90
2018-03-11T18:51:28.044Z,70.10
2018-03-11T18:53:55.566Z,70.30
2018-03-11T18:56:23.105Z,70.10
2018-03-11T18:58:50.622Z,70.30
2018-03-11T19:01:18.147Z,69.50
2018-03-11T19:03:45.704Z,69.20
2018-03-11T19:06:13.227Z,70.00
2018-03-11T19:08:41.510Z,70.00
2018-03-11T19:11:09.046Z,70.00
2018-03-11T19:13:37.315Z,70.10
2018-03-11T19:16:05.637Z,70.00
2018-03-11T19:18:33.177Z,70.00
2018-03-11T19:21:00.694Z,70.30
2018-03-11T19:23:28.241Z,70.30
2018-03-11T19:25:56.535Z,70.10
2018-03-11T19:28:24.815Z,70.60
2018-03-11T19:30:53.169Z,70.30
2018-03-11T19:33:20.704Z,70.20
2018-03-11T19:35:48.235Z,71.40
2018-03-11T19:38:15.778Z,71.40
2018-03-11T19:40:43.321Z,71.50
2018-03-11T19:43:11.595Z,72.80
2018-03-11T19:45:39.886Z,73.10
2018-03-11T19:48:07.407Z,73.00
2018-03-11T19:50:34.961Z,72.90
2018-03-11T19:53:02.473Z,71.90
2018-03-11T19:55:30.007Z,72.10
2018-03-11T19:57:57.538Z,73.80
2018-03-11T20:00:25.061Z,74.90
2018-03-11T20:02:52.603Z,75.30
2018-03-11T20:05:20.138Z,75.50
2018-03-11T20:07:48.422Z,75.10
2018-03-11T20:10:15.952Z,75.10
2018-03-11T20:12:44.238Z,75.00
2018-03-11T20:15:12.550Z,75.50
2018-03-11T20:17:40.076Z,75.50
2018-03-11T20:20:08.383Z,76.60
2018-03-11T20:22:35.913Z,76.60
2018-03-11T20:25:03.451Z,76.90
2018-03-11T20:27:31.741Z,77.30
2018-03-11T20:29:59.280Z,77.30
2018-03-11T20:32:27.568Z,77.50
2018-03-11T20:34:55.102Z,77.40
2018-03-11T20:37:22.630Z,77.30
2018-03-11T20:39:50.171Z,77.30
2018-03-11T20:42:17.724Z,77.50
2018-03-11T20:44:45.227Z,77.50
2018-03-11T20:47:12.746Z,77.20
2018-03-11T20:49:40.288Z,77.60
2018-03-11T20:52:07.814Z,77.60
2018-03-11T20:54:36.127Z,77.90
2018-03-11T20:57:04.433Z,78.10
2018-03-11T20:59:31.965Z,78.10
2018-03-11T21:01:59.472Z,78.10
2018-03-11T21:04:27.051Z,78.50
2018-03-11T21:06:54.587Z,78.60
2018-03-11T21:09:22.893Z,79.00
2018-03-11T21:11:50.410Z,78.90
2018-03-11T21:14:17.943Z,79.00
2018-03-11T21:16:45.479Z,79.70
2018-03-11T21:19:12.993Z,79.90
2018-03-11T21:21:40.532Z,80.10
2018-03-11T21:24:08.050Z,79.80
2018-03-11T21:26:35.575Z,79.60
2018-03-11T21:29:03.869Z,79.80
2018-03-11T21:31:31.396Z,79.80
2018-03-11T21:33:58.904Z,80.60
2018-03-11T21:36:26.417Z,79.30
2018-03-11T21:38:54.708Z,80.10
2018-03-11T21:41:22.234Z,80.10
2018-03-11T21:43:49.759Z,80.20
2018-03-11T21:46:17.268Z,80.30
2018-03-11T21:48:45.585Z,80.50
2018-03-11T21:51:13.103Z,80.50
2018-03-11T21:53:40.636Z,80.60
2018-03-11T21:56:08.158Z,80.80
2018-03-11T21:58:35.684Z,81.00
2018-03-11T22:01:03.961Z,80.60
2018-03-11T22:03:31.537Z,80.50
2018-03-11T22:05:59.851Z,80.50
2018-03-11T22:08:27.396Z,80.50
2018-03-11T22:10:54.897Z,80.20
2018-03-11T22:13:23.183Z,80.70
2018-03-11T22:15:51.464Z,80.70
2018-03-11T22:18:18.980Z,80.70
2018-03-11T22:20:46.499Z,80.70
2018-03-11T22:23:14.061Z,80.70
2018-03-11T22:25:41.591Z,80.60
2018-03-11T22:28:09.114Z,80.70
2018-03-11T22:30:36.636Z,80.80
2018-03-11T22:33:04.144Z,81.00
2018-03-11T22:35:32.440Z,81.10
2018-03-11T22:37:59.959Z,81.00
2018-03-11T22:40:28.264Z,80.70
2018-03-11T22:42:56.565Z,80.80
2018-03-11T22:45:24.084Z,80.80
2018-03-11T22:47:52.363Z,81.10
2018-03-11T22:50:20.667Z,81.10
2018-03-11T22:52:48.177Z,81.10
2018-03-11T22:55:15.731Z,81.40
2018-03-11T22:57:43.237Z,81.60
2018-03-11T23:00:10.756Z,82.00
2018-03-11T23:02:38.304Z,82.50
2018-03-11T23:05:05.820Z,82.80
2018-03-11T23:07:33.338Z,82.90
2018-03-11T23:10:00.906Z,83.30
2018-03-11T23:12:28.434Z,83.40
2018-03-11T23:14:55.940Z,83.40
2018-03-11T23:17:23.451Z,83.70
2018-03-11T23:19:51.028Z,83.40
2018-03-11T23:22:19.331Z,83.70
2018-03-11T23:24:46.864Z,83.70
2018-03-11T23:27:15.144Z,84.20
2018-03-11T23:29:42.653Z,84.20
2018-03-11T23:32:10.188Z,84.10
2018-03-11T23:34:37.713Z,84.30
2018-03-11T23:37:06.014Z,84.40
2018-03-11T23:39:33.582Z,84.40
2018-03-11T23:42:01.106Z,84.80
2018-03-11T23:44:28.628Z,84.70
2018-03-11T23:46:56.165Z,84.30
2018-03-11T23:49:23.687Z,85.30
2018-03-11T23:51:51.210Z,85.20
2018-03-11T23:54:19.512Z,85.60
2018-03-11T23:56:47.031Z,85.50
2018-03-11T23:59:14.547Z,85.60
